Time;durP1;ratioP1;P1;durP2;ratioP2;P2;SDS_P1;SDS_P2;PMS_P1;PMS_P2;Temp;Humidity;BMP_temperature;BMP_pressure;BME280_temperature;BME280_humidity;BME280_pressure;Samples;Min_cycle;Max_cycle;Signal;HPM_P1;HPM_P2
2020/12/08 00:02:13;;;;;;;13.90;7.70;;;-3.50;70.60;;;;;;5019271;28;20044;-63
2020/12/08 00:04:43;;;;;;;10.43;7.13;;;-3.50;71.00;;;;;;5021471;28;20021;-63
2020/12/08 00:07:09;;;;;;;11.57;7.25;;;-3.50;69.40;;;;;;5016013;28;20037;-63
2020/12/08 00:09:35;;;;;;;9.88;6.70;;;-3.50;69.40;;;;;;5020183;28;20064;-63
2020/12/08 00:12:01;;;;;;;13.43;7.55;;;-3.60;69.80;;;;;;5017304;28;20033;-63
2020/12/08 00:14:27;;;;;;;11.80;7.20;;;-3.50;69.80;;;;;;5015998;28;20026;-63
2020/12/08 00:16:53;;;;;;;9.82;6.32;;;-3.50;69.70;;;;;;5018841;28;20030;-63
2020/12/08 00:19:19;;;;;;;13.65;7.25;;;-3.60;69.60;;;;;;5017059;28;20048;-63
2020/12/08 00:21:45;;;;;;;15.68;8.70;;;-3.50;70.10;;;;;;5017319;28;20100;-63
2020/12/08 00:24:14;;;;;;;13.65;7.80;;;-3.60;70.00;;;;;;5021491;28;20022;-64
2020/12/08 00:26:41;;;;;;;14.38;8.63;;;-3.60;69.60;;;;;;5018399;28;20075;-63
2020/12/08 00:29:10;;;;;;;17.05;8.68;;;-3.70;69.90;;;;;;5016631;28;20038;-63
2020/12/08 00:31:36;;;;;;;11.60;6.93;;;-3.70;70.00;;;;;;5020502;28;20486;-63
2020/12/08 00:34:02;;;;;;;13.95;8.50;;;-3.70;70.10;;;;;;5014760;28;20026;-63
2020/12/08 00:36:28;;;;;;;11.20;7.00;;;-3.80;70.00;;;;;;5018336;28;20079;-63
2020/12/08 00:38:54;;;;;;;13.68;8.00;;;-3.80;69.90;;;;;;5017864;28;20056;-63
2020/12/08 00:41:21;;;;;;;10.32;6.90;;;-3.90;70.70;;;;;;5023868;28;20462;-63
2020/12/08 00:43:48;;;;;;;12.85;7.13;;;-3.90;70.20;;;;;;5021495;28;20425;-63
2020/12/08 00:46:15;;;;;;;11.25;7.22;;;-3.90;70.40;;;;;;5023645;28;20018;-63
2020/12/08 00:48:42;;;;;;;12.07;7.32;;;-3.80;70.90;;;;;;5021006;28;20017;-63
2020/12/08 00:51:08;;;;;;;14.27;6.70;;;-3.80;70.60;;;;;;5020940;28;20029;-62
2020/12/08 00:53:34;;;;;;;11.05;6.72;;;-3.80;70.40;;;;;;5020802;28;20021;-63
2020/12/08 00:56:00;;;;;;;14.65;7.55;;;-3.80;70.80;;;;;;5022624;28;20021;-63
2020/12/08 00:58:26;;;;;;;14.00;7.95;;;-3.80;70.70;;;;;;5018468;28;20122;-63
2020/12/08 01:00:53;;;;;;;12.65;7.38;;;-3.80;70.90;;;;;;5020761;28;20030;-63
2020/12/08 01:03:19;;;;;;;13.52;7.88;;;-3.80;70.80;;;;;;5016980;28;20034;-63
2020/12/08 01:05:45;;;;;;;11.65;7.05;;;-3.80;70.80;;;;;;5023016;28;20021;-62
2020/12/08 01:08:11;;;;;;;10.48;6.75;;;-3.80;71.10;;;;;;5017076;28;20370;-63
2020/12/08 01:10:37;;;;;;;14.52;8.20;;;-3.80;71.20;;;;;;5021694;28;20655;-63
2020/12/08 01:13:02;;;;;;;13.15;7.53;;;-3.80;71.20;;;;;;5020102;28;20061;-63
2020/12/08 01:15:28;;;;;;;12.77;7.13;;;-3.80;71.40;;;;;;5020255;28;20499;-63
2020/12/08 01:17:54;;;;;;;13.93;7.25;;;-3.90;71.50;;;;;;5020538;28;20033;-62
2020/12/08 01:20:20;;;;;;;13.52;7.78;;;-3.80;71.70;;;;;;5017352;28;20469;-63
2020/12/08 01:22:45;;;;;;;13.63;7.57;;;-3.80;72.50;;;;;;5017015;28;20060;-63
2020/12/08 01:25:11;;;;;;;12.02;7.93;;;-3.90;72.20;;;;;;5020661;28;20026;-63
2020/12/08 01:27:37;;;;;;;13.80;8.55;;;-3.90;72.70;;;;;;5017923;28;20085;-63
2020/12/08 01:30:04;;;;;;;15.15;8.13;;;-3.90;72.70;;;;;;5019013;28;20433;-63
2020/12/08 01:32:30;;;;;;;12.32;6.90;;;-3.90;72.60;;;;;;5018150;28;20022;-62
2020/12/08 01:34:55;;;;;;;11.32;7.90;;;-3.90;72.80;;;;;;5017623;28;20037;-63
2020/12/08 01:37:21;;;;;;;13.00;8.40;;;-3.80;73.10;;;;;;5016653;28;20060;-63
2020/12/08 01:39:47;;;;;;;12.80;7.68;;;-3.80;72.80;;;;;;5020628;28;20029;-63
2020/12/08 01:42:13;;;;;;;10.82;6.85;;;-3.80;72.70;;;;;;5019866;28;20065;-63
2020/12/08 01:44:38;;;;;;;12.88;7.97;;;-3.80;72.50;;;;;;5020732;28;20366;-63
2020/12/08 01:47:04;;;;;;;12.23;8.23;;;-3.80;72.80;;;;;;5020928;28;20397;-62
2020/12/08 01:49:30;;;;;;;14.45;9.40;;;-3.80;72.50;;;;;;5021075;28;20072;-62
2020/12/08 01:51:58;;;;;;;13.23;8.68;;;-3.80;73.60;;;;;;5016874;28;20467;-63
2020/12/08 01:54:25;;;;;;;16.45;9.15;;;-3.80;73.70;;;;;;5018031;28;20021;-63
2020/12/08 01:56:50;;;;;;;13.50;8.48;;;-3.80;73.50;;;;;;5021847;28;20041;-62
2020/12/08 01:59:16;;;;;;;14.45;8.45;;;-3.80;74.10;;;;;;5017204;28;20034;-63
2020/12/08 02:01:42;;;;;;;14.10;8.10;;;-3.80;74.10;;;;;;5021640;28;20077;-63
2020/12/08 02:04:08;;;;;;;14.85;7.68;;;-3.80;74.00;;;;;;5017370;28;20030;-63
2020/12/08 02:06:33;;;;;;;10.27;6.78;;;-3.80;73.40;;;;;;5017561;28;20152;-62
2020/12/08 02:08:59;;;;;;;12.27;8.25;;;-3.80;73.40;;;;;;5020389;28;20026;-63
2020/12/08 02:11:25;;;;;;;12.25;6.65;;;-3.80;73.60;;;;;;5021065;28;20096;-62
2020/12/08 02:13:50;;;;;;;13.77;8.50;;;-3.70;73.30;;;;;;5016592;28;20021;-63
2020/12/08 02:16:17;;;;;;;11.50;6.97;;;-3.70;73.20;;;;;;5020348;28;20109;-63
2020/12/08 02:18:43;;;;;;;12.15;8.77;;;-3.70;72.90;;;;;;5021271;28;20116;-63
2020/12/08 02:21:09;;;;;;;12.32;7.97;;;-3.70;72.90;;;;;;5018228;28;20100;-63
2020/12/08 02:23:34;;;;;;;14.07;7.63;;;-3.80;73.00;;;;;;5017984;28;20028;-63
2020/12/08 02:26:09;;;;;;;17.02;9.13;;;-3.80;73.00;;;;;;5023497;28;20032;-62
2020/12/08 02:28:35;;;;;;;14.27;8.02;;;-3.70;73.40;;;;;;5017433;28;20469;-63
2020/12/08 02:31:00;;;;;;;14.07;7.75;;;-3.80;73.40;;;;;;5019077;28;20084;-63
2020/12/08 02:33:28;;;;;;;17.80;8.60;;;-3.80;73.60;;;;;;5020324;28;20038;-62
2020/12/08 02:35:55;;;;;;;11.77;7.25;;;-3.80;73.60;;;;;;5017635;28;20076;-62
2020/12/08 02:38:25;;;;;;;13.45;8.50;;;-3.80;73.30;;;;;;5017076;28;20418;-63
2020/12/08 02:40:51;;;;;;;12.75;8.38;;;-3.80;73.60;;;;;;5019352;28;20026;-63
2020/12/08 02:43:17;;;;;;;17.50;9.07;;;-3.80;74.30;;;;;;5022328;28;20034;-63
2020/12/08 02:45:43;;;;;;;13.30;8.13;;;-3.80;73.60;;;;;;5020998;28;20040;-63
2020/12/08 02:48:09;;;;;;;14.88;8.77;;;-3.90;72.80;;;;;;5020274;28;20026;-63
2020/12/08 02:50:36;;;;;;;11.98;7.72;;;-4.00;73.30;;;;;;5018066;28;20018;-63
2020/12/08 02:53:02;;;;;;;10.18;7.35;;;-4.00;73.90;;;;;;5016292;28;20045;-63
2020/12/08 02:55:28;;;;;;;13.77;7.70;;;-4.00;73.90;;;;;;5020135;28;20084;-63
2020/12/08 02:57:54;;;;;;;14.38;7.63;;;-4.00;73.40;;;;;;5019706;28;20025;-62
2020/12/08 03:00:20;;;;;;;13.32;8.02;;;-4.00;73.40;;;;;;5020349;28;20036;-62
2020/12/08 03:02:46;;;;;;;12.00;7.88;;;-3.90;73.30;;;;;;5016261;28;20026;-63
2020/12/08 03:05:11;;;;;;;11.40;7.32;;;-4.00;73.50;;;;;;5018484;28;20054;-63
2020/12/08 03:07:40;;;;;;;15.65;8.13;;;-3.90;73.50;;;;;;5015397;28;20022;-62
2020/12/08 03:10:06;;;;;;;17.65;9.27;;;-3.90;73.40;;;;;;5015528;28;20105;-62
2020/12/08 03:12:32;;;;;;;13.90;8.48;;;-3.90;73.40;;;;;;5022555;28;20045;-63
2020/12/08 03:14:58;;;;;;;14.30;7.75;;;-3.90;73.30;;;;;;5017198;28;20040;-62
2020/12/08 03:17:24;;;;;;;14.52;9.30;;;-4.00;73.20;;;;;;5013437;28;20034;-62
2020/12/08 03:19:53;;;;;;;19.25;9.65;;;-4.00;73.60;;;;;;5016293;28;20478;-63
2020/12/08 03:22:18;;;;;;;17.90;9.45;;;-4.10;73.80;;;;;;5013916;28;20179;-63
2020/12/08 03:24:44;;;;;;;12.50;8.60;;;-4.10;74.30;;;;;;5017505;28;20096;-62
2020/12/08 03:27:10;;;;;;;14.13;8.32;;;-4.20;74.50;;;;;;5018201;28;20042;-62
2020/12/08 03:29:35;;;;;;;15.80;8.63;;;-4.10;74.60;;;;;;5018547;28;20384;-62
2020/12/08 03:32:01;;;;;;;13.70;8.55;;;-4.10;74.10;;;;;;5020735;28;20048;-63
2020/12/08 03:34:27;;;;;;;16.45;9.57;;;-4.10;74.50;;;;;;5014507;28;20041;-62
2020/12/08 03:36:52;;;;;;;12.27;7.25;;;-4.10;74.80;;;;;;5015815;28;20107;-63
2020/12/08 03:39:19;;;;;;;13.32;6.97;;;-4.10;74.40;;;;;;5016727;28;20465;-62
2020/12/08 03:41:45;;;;;;;14.23;8.02;;;-4.10;74.30;;;;;;5018704;28;20100;-62
2020/12/08 03:44:11;;;;;;;13.27;8.10;;;-4.00;74.50;;;;;;5013894;28;20033;-63
2020/12/08 03:46:37;;;;;;;19.85;9.30;;;-4.00;74.50;;;;;;5015936;28;20107;-63
2020/12/08 03:49:03;;;;;;;15.40;8.07;;;-4.00;75.30;;;;;;5015121;28;20029;-63
2020/12/08 03:51:28;;;;;;;19.33;9.95;;;-4.00;75.10;;;;;;5017884;28;20381;-63
2020/12/08 03:53:54;;;;;;;18.30;10.25;;;-4.00;76.10;;;;;;5014615;28;20029;-63
2020/12/08 03:56:20;;;;;;;20.23;10.25;;;-3.90;76.10;;;;;;5020924;28;20037;-63
2020/12/08 03:58:46;;;;;;;20.95;11.70;;;-3.90;76.00;;;;;;5021598;28;20515;-63
2020/12/08 04:01:20;;;;;;;19.65;10.18;;;-3.90;76.30;;;;;;5018136;28;20033;-63
2020/12/08 04:03:48;;;;;;;14.82;9.82;;;-3.90;76.80;;;;;;5014746;28;20021;-62
2020/12/08 04:06:14;;;;;;;17.13;9.85;;;-3.90;76.60;;;;;;5014055;28;20052;-62
2020/12/08 04:08:41;;;;;;;23.40;11.13;;;-3.80;76.70;;;;;;5013845;28;20026;-63
2020/12/08 04:11:07;;;;;;;17.08;10.70;;;-3.80;76.80;;;;;;5017530;28;20041;-63
2020/12/08 04:13:33;;;;;;;19.77;10.00;;;-3.80;77.10;;;;;;5018968;28;20025;-63
2020/12/08 04:15:59;;;;;;;14.82;8.50;;;-3.90;76.80;;;;;;5016469;28;20045;-62
2020/12/08 04:18:25;;;;;;;17.38;10.10;;;-3.90;76.60;;;;;;5018102;28;20038;-62
2020/12/08 04:20:50;;;;;;;15.15;8.70;;;-3.90;77.40;;;;;;5016323;28;20041;-62
2020/12/08 04:23:18;;;;;;;16.63;9.07;;;-3.90;76.70;;;;;;5018264;28;20486;-62
2020/12/08 04:25:45;;;;;;;16.23;8.45;;;-3.90;76.30;;;;;;5016470;28;20068;-62
2020/12/08 04:28:10;;;;;;;13.82;8.18;;;-3.90;76.40;;;;;;5018203;28;20045;-62
2020/12/08 04:30:37;;;;;;;24.77;9.68;;;-3.90;76.60;;;;;;5018360;28;20525;-62
2020/12/08 04:33:04;;;;;;;19.50;9.13;;;-3.90;76.00;;;;;;5018625;28;20394;-62
2020/12/08 04:35:30;;;;;;;13.30;7.65;;;-3.90;75.80;;;;;;5019280;28;20037;-62
2020/12/08 04:37:56;;;;;;;14.48;9.07;;;-3.90;75.80;;;;;;5017453;28;20054;-63
2020/12/08 04:40:23;;;;;;;13.90;8.63;;;-3.90;75.80;;;;;;5016732;28;20049;-62
2020/12/08 04:42:50;;;;;;;12.88;8.13;;;-4.00;75.70;;;;;;5018335;28;20034;-62
2020/12/08 04:45:17;;;;;;;18.75;9.88;;;-4.00;75.70;;;;;;5019841;28;20451;-62
2020/12/08 04:47:46;;;;;;;15.68;9.02;;;-3.90;75.80;;;;;;5019823;28;20026;-61
2020/12/08 04:50:14;;;;;;;14.10;7.70;;;-4.00;75.80;;;;;;5020158;28;20033;-62
2020/12/08 04:52:41;;;;;;;12.65;7.68;;;-4.00;75.60;;;;;;5017932;28;20034;-62
2020/12/08 04:55:07;;;;;;;18.63;8.45;;;-4.00;75.60;;;;;;5017552;28;20040;-62
2020/12/08 04:57:33;;;;;;;19.25;10.40;;;-3.90;75.70;;;;;;5017102;28;20402;-62
2020/12/08 05:00:07;;;;;;;15.55;8.48;;;-3.90;76.10;;;;;;5016857;28;20053;-63
2020/12/08 05:02:44;;;;;;;11.35;7.82;;;-3.90;75.70;;;;;;5016592;28;20029;-63
2020/12/08 05:05:10;;;;;;;15.10;8.05;;;-3.90;75.10;;;;;;5018355;28;20033;-62
2020/12/08 05:07:35;;;;;;;13.38;7.50;;;-3.90;75.10;;;;;;5015751;28;20036;-62
2020/12/08 05:10:01;;;;;;;16.05;7.97;;;-3.90;75.30;;;;;;5017569;28;20030;-62
2020/12/08 05:12:27;;;;;;;15.27;7.55;;;-3.90;75.20;;;;;;5017005;28;20717;-62
2020/12/08 05:14:52;;;;;;;22.08;8.10;;;-3.80;75.10;;;;;;5016114;28;20026;-62
2020/12/08 05:17:23;;;;;;;14.88;8.57;;;-3.80;75.60;;;;;;5017284;28;20030;-62
2020/12/08 05:20:04;;;;;;;20.55;10.60;;;-3.70;75.60;;;;;;5017599;28;20117;-63
2020/12/08 05:22:30;;;;;;;17.38;9.20;;;-3.60;76.00;;;;;;5022923;28;20040;-62
2020/12/08 05:25:10;;;;;;;18.45;10.70;;;-3.60;76.00;;;;;;5023409;28;20612;-62
2020/12/08 05:27:36;;;;;;;18.23;10.02;;;-3.60;75.90;;;;;;5022439;28;20132;-63
2020/12/08 05:30:06;;;;;;;16.98;8.45;;;-3.60;76.20;;;;;;5020540;28;20406;-62
2020/12/08 05:32:37;;;;;;;19.17;9.32;;;-3.50;76.30;;;;;;5022167;28;20042;-63
2020/12/08 05:35:11;;;;;;;15.95;8.27;;;-3.60;75.70;;;;;;5020110;28;20030;-62
2020/12/08 05:37:48;;;;;;;14.38;8.00;;;-3.60;75.60;;;;;;5021106;28;20238;-63
2020/12/08 05:40:22;;;;;;;16.60;7.88;;;-3.50;75.60;;;;;;5019603;28;20161;-63
2020/12/08 05:42:50;;;;;;;15.18;7.35;;;-3.50;75.20;;;;;;5021676;28;20487;-63
2020/12/08 05:45:21;;;;;;;17.40;8.02;;;-3.50;75.30;;;;;;5019698;28;20022;-63
2020/12/08 05:47:55;;;;;;;14.10;8.47;;;-3.50;75.20;;;;;;5020535;28;20037;-62
2020/12/08 05:50:23;;;;;;;14.60;8.25;;;-3.60;74.60;;;;;;5021379;28;20275;-63
2020/12/08 05:52:55;;;;;;;14.27;7.72;;;-3.60;74.80;;;;;;5022471;28;20543;-63
2020/12/08 05:55:24;;;;;;;14.93;7.55;;;-3.50;74.70;;;;;;5021449;28;20509;-62
2020/12/08 05:57:52;;;;;;;13.98;7.95;;;-3.60;74.60;;;;;;5021377;28;20053;-62
2020/12/08 06:00:24;;;;;;;10.00;6.57;;;-3.60;74.60;;;;;;5021941;28;20469;-63
2020/12/08 06:02:50;;;;;;;16.75;8.13;;;-3.60;74.60;;;;;;5021110;28;20080;-63
2020/12/08 06:05:31;;;;;;;18.27;8.73;;;-3.60;74.40;;;;;;5018930;28;20478;-62
2020/12/08 06:07:58;;;;;;;13.48;7.85;;;-3.70;74.20;;;;;;5020029;28;20132;-62
2020/12/08 06:10:24;;;;;;;16.58;7.32;;;-3.70;74.60;;;;;;5020200;28;20443;-62
2020/12/08 06:13:01;;;;;;;13.10;7.45;;;-3.70;74.80;;;;;;5020692;28;20374;-63
2020/12/08 06:15:40;;;;;;;13.95;7.78;;;-3.70;74.80;;;;;;5021019;28;20080;-62
2020/12/08 06:18:07;;;;;;;14.32;7.13;;;-3.70;74.80;;;;;;5022784;28;20088;-63
2020/12/08 06:20:37;;;;;;;12.27;7.47;;;-3.70;75.10;;;;;;5019364;28;20037;-61
2020/12/08 06:23:03;;;;;;;16.20;8.52;;;-3.60;75.30;;;;;;5018118;28;20021;-63
2020/12/08 06:25:29;;;;;;;12.32;7.93;;;-3.60;75.20;;;;;;5018644;28;20029;-63
2020/12/08 06:28:02;;;;;;;16.58;7.68;;;-3.70;74.90;;;;;;5018414;28;20049;-62
2020/12/08 06:30:28;;;;;;;21.33;9.00;;;-3.70;75.20;;;;;;5019849;28;20501;-63
2020/12/08 06:32:54;;;;;;;19.08;8.90;;;-3.70;75.60;;;;;;5018297;28;20127;-62
2020/12/08 06:35:20;;;;;;;17.60;7.53;;;-3.70;75.50;;;;;;5018680;28;20084;-63
2020/12/08 06:37:47;;;;;;;19.25;8.40;;;-3.80;75.70;;;;;;5017789;28;20045;-62
2020/12/08 06:40:18;;;;;;;13.65;7.20;;;-3.80;76.00;;;;;;5017635;28;20393;-63
2020/12/08 06:42:46;;;;;;;12.55;7.85;;;-3.80;76.00;;;;;;5018568;28;20041;-62
2020/12/08 06:45:18;;;;;;;17.42;8.25;;;-3.70;76.40;;;;;;5016150;28;20038;-51
2020/12/08 06:47:45;;;;;;;22.17;10.38;;;-3.70;76.20;;;;;;5015252;28;20037;-53
2020/12/08 06:50:31;;;;;;;18.60;9.25;;;-3.70;76.40;;;;;;5016290;28;21314;-54
2020/12/08 06:52:59;;;;;;;19.15;10.27;;;-3.80;76.50;;;;;;5012502;28;20488;-50
2020/12/08 06:55:26;;;;;;;17.90;9.18;;;-3.80;77.30;;;;;;5016039;28;20060;-51
2020/12/08 06:57:52;;;;;;;25.95;9.85;;;-3.90;77.30;;;;;;5019329;28;20041;-53
2020/12/08 07:00:18;;;;;;;18.83;10.43;;;-3.90;77.70;;;;;;5015572;28;20034;-54
2020/12/08 07:02:51;;;;;;;25.23;9.25;;;-3.90;78.20;;;;;;5010670;28;20447;-51
2020/12/08 07:05:19;;;;;;;21.63;9.57;;;-3.80;78.00;;;;;;5013793;28;20092;-55
2020/12/08 07:07:46;;;;;;;20.85;10.05;;;-3.80;78.10;;;;;;5017536;28;20061;-51
2020/12/08 07:10:12;;;;;;;24.63;12.02;;;-3.80;78.50;;;;;;5017080;28;20794;-52
2020/12/08 07:12:46;;;;;;;18.67;10.05;;;-3.80;78.60;;;;;;5017008;28;20040;-54
2020/12/08 07:15:15;;;;;;;19.98;9.95;;;-3.90;78.70;;;;;;5014784;28;20036;-51
2020/12/08 07:17:41;;;;;;;14.52;8.45;;;-3.80;79.20;;;;;;5015553;28;20036;-54
2020/12/08 07:20:07;;;;;;;18.38;9.63;;;-3.80;79.30;;;;;;5013373;28;20025;-53
2020/12/08 07:22:41;;;;;;;16.73;9.52;;;-3.70;79.20;;;;;;5011594;28;20091;-52
2020/12/08 07:25:08;;;;;;;19.02;10.57;;;-3.70;79.00;;;;;;5014949;28;20040;-52
2020/12/08 07:27:34;;;;;;;15.15;8.77;;;-3.60;78.90;;;;;;5013072;28;20049;-51
2020/12/08 07:30:02;;;;;;;15.23;8.82;;;-3.70;78.50;;;;;;5016728;28;20036;-52
2020/12/08 07:32:28;;;;;;;16.85;8.52;;;-3.60;78.90;;;;;;5013439;28;20170;-52
2020/12/08 07:34:54;;;;;;;20.02;9.25;;;-3.60;78.80;;;;;;5013343;28;20463;-53
2020/12/08 07:37:20;;;;;;;16.42;7.97;;;-3.50;79.00;;;;;;5019369;28;20081;-55
2020/12/08 07:39:46;;;;;;;18.88;8.85;;;-3.50;78.80;;;;;;5013208;28;20025;-53
2020/12/08 07:42:11;;;;;;;19.17;9.50;;;-3.50;78.70;;;;;;5016484;28;20033;-51
2020/12/08 07:44:37;;;;;;;21.83;10.15;;;-3.40;78.80;;;;;;5016113;28;20029;-51
2020/12/08 07:47:09;;;;;;;22.35;10.43;;;-3.40;78.80;;;;;;5018396;28;20025;-51
2020/12/08 07:49:39;;;;;;;21.50;9.23;;;-3.40;78.90;;;;;;5020097;28;20032;-54
2020/12/08 07:52:05;;;;;;;19.33;10.02;;;-3.40;78.90;;;;;;5014411;28;20037;-52
2020/12/08 07:54:31;;;;;;;25.17;10.25;;;-3.30;79.00;;;;;;5018017;28;20026;-53
2020/12/08 07:57:06;;;;;;;25.77;11.43;;;-3.40;78.80;;;;;;5015799;28;20604;-55
2020/12/08 07:59:31;;;;;;;26.25;10.07;;;-3.40;78.80;;;;;;5015164;28;20041;-50
2020/12/08 08:01:57;;;;;;;24.73;10.45;;;-3.30;78.80;;;;;;5011523;28;20037;-53
2020/12/08 08:04:23;;;;;;;26.50;10.20;;;-3.30;78.60;;;;;;5014875;28;20064;-53
2020/12/08 08:06:48;;;;;;;24.13;10.88;;;-3.30;78.80;;;;;;5018237;28;20076;-53
2020/12/08 08:09:14;;;;;;;30.25;11.40;;;-3.30;78.60;;;;;;5016323;28;20453;-54
2020/12/08 08:11:40;;;;;;;30.48;13.18;;;-3.40;78.60;;;;;;5015236;28;20037;-55
2020/12/08 08:14:06;;;;;;;24.27;10.35;;;-3.40;79.30;;;;;;5015876;28;20121;-51
2020/12/08 08:16:32;;;;;;;19.88;10.10;;;-3.50;79.10;;;;;;5016320;28;20029;-50
2020/12/08 08:18:58;;;;;;;21.92;9.65;;;-3.40;79.40;;;;;;5017266;28;20558;-51
2020/12/08 08:21:24;;;;;;;18.15;9.50;;;-3.40;79.20;;;;;;5018215;28;20060;-54
2020/12/08 08:23:50;;;;;;;18.75;9.38;;;-3.40;79.10;;;;;;5017859;28;20036;-54
2020/12/08 08:26:16;;;;;;;24.15;10.57;;;-3.30;79.40;;;;;;5017200;28;20053;-54
2020/12/08 08:28:42;;;;;;;20.15;10.30;;;-3.20;79.40;;;;;;5014725;28;20207;-53
2020/12/08 08:31:08;;;;;;;20.90;10.23;;;-3.20;79.00;;;;;;5015489;28;20121;-54
2020/12/08 08:33:34;;;;;;;26.63;9.55;;;-3.20;78.80;;;;;;5014132;28;21367;-51
2020/12/08 08:35:59;;;;;;;22.95;11.30;;;-3.20;78.90;;;;;;5013414;28;20064;-51
2020/12/08 08:38:28;;;;;;;19.60;8.90;;;-3.20;79.20;;;;;;5008998;28;20030;-52
2020/12/08 08:40:57;;;;;;;21.50;9.07;;;-3.20;78.80;;;;;;5017188;28;20052;-51
2020/12/08 08:43:24;;;;;;;19.02;7.93;;;-3.10;78.60;;;;;;5014101;28;20940;-50
2020/12/08 08:45:51;;;;;;;15.23;8.18;;;-3.10;78.50;;;;;;5012149;28;20432;-55
2020/12/08 08:48:17;;;;;;;16.95;9.50;;;-3.10;78.50;;;;;;5013399;28;20041;-51
2020/12/08 08:50:42;;;;;;;20.00;10.07;;;-3.00;78.40;;;;;;5014370;28;20044;-52
2020/12/08 08:53:08;;;;;;;14.63;8.30;;;-3.00;78.00;;;;;;5010882;28;20037;-53
2020/12/08 08:55:34;;;;;;;15.25;8.50;;;-3.00;77.90;;;;;;5017661;28;20128;-53
2020/12/08 08:57:59;;;;;;;16.20;8.98;;;-2.90;78.40;;;;;;5014237;28;20046;-55
2020/12/08 09:00:25;;;;;;;20.27;8.57;;;-2.90;77.80;;;;;;5015836;28;20036;-51
2020/12/08 09:02:51;;;;;;;15.30;9.27;;;-2.90;78.00;;;;;;5013206;28;20750;-52
2020/12/08 09:05:16;;;;;;;18.13;8.32;;;-2.90;78.20;;;;;;5017502;28;20041;-54
2020/12/08 09:07:42;;;;;;;15.75;8.70;;;-2.80;77.80;;;;;;5014570;28;20045;-51
2020/12/08 09:10:08;;;;;;;18.10;9.80;;;-2.80;77.80;;;;;;5017451;28;20033;-54
2020/12/08 09:12:33;;;;;;;17.60;9.00;;;-2.80;77.20;;;;;;5015190;28;20159;-54
2020/12/08 09:15:01;;;;;;;18.58;9.10;;;-2.90;77.10;;;;;;5015390;28;20048;-52
2020/12/08 09:17:26;;;;;;;17.13;9.35;;;-2.90;76.70;;;;;;5016518;28;20041;-55
2020/12/08 09:19:53;;;;;;;21.17;11.30;;;-3.00;76.90;;;;;;5016874;28;20401;-52
2020/12/08 09:22:20;;;;;;;20.00;10.05;;;-3.00;76.70;;;;;;5017240;28;20033;-52
2020/12/08 09:24:45;;;;;;;18.20;8.80;;;-3.10;76.60;;;;;;5016843;28;20525;-52
2020/12/08 09:27:15;;;;;;;16.95;9.38;;;-3.20;77.10;;;;;;5010022;28;20144;-51
2020/12/08 09:29:41;;;;;;;17.55;10.30;;;-3.10;78.00;;;;;;5010006;28;20061;-52
2020/12/08 09:32:07;;;;;;;19.27;10.82;;;-3.20;76.80;;;;;;5017017;28;20123;-51
2020/12/08 09:34:33;;;;;;;17.25;8.65;;;-3.20;77.30;;;;;;5016637;28;20033;-52
2020/12/08 09:37:00;;;;;;;16.45;9.30;;;-3.20;77.60;;;;;;5016720;28;20087;-51
2020/12/08 09:39:26;;;;;;;19.55;9.93;;;-3.10;77.70;;;;;;5014320;28;20172;-52
2020/12/08 09:41:52;;;;;;;16.58;9.75;;;-3.10;77.70;;;;;;5013111;28;20452;-54
2020/12/08 09:44:18;;;;;;;16.88;9.82;;;-3.00;77.70;;;;;;5018623;28;20037;-55
2020/12/08 09:46:44;;;;;;;23.05;11.00;;;-3.00;77.60;;;;;;5015241;28;20030;-54
2020/12/08 09:49:11;;;;;;;20.67;10.95;;;-3.00;77.10;;;;;;5010022;28;20037;-53
2020/12/08 09:51:37;;;;;;;21.83;9.40;;;-3.00;76.90;;;;;;5015548;28;20025;-55
2020/12/08 09:54:04;;;;;;;19.80;9.40;;;-3.10;77.20;;;;;;5012658;28;20037;-53
2020/12/08 09:56:30;;;;;;;22.05;10.63;;;-3.00;77.60;;;;;;5016051;28;20029;-52
2020/12/08 09:58:56;;;;;;;19.35;8.05;;;-2.90;77.50;;;;;;5020307;28;20040;-55
2020/12/08 10:01:33;;;;;;;17.45;8.85;;;-2.90;77.40;;;;;;5007886;28;20088;-52
2020/12/08 10:04:00;;;;;;;16.58;9.15;;;-2.90;77.30;;;;;;5016318;28;20444;-55
2020/12/08 10:06:26;;;;;;;18.15;10.20;;;-2.80;77.60;;;;;;5016231;28;20035;-53
2020/12/08 10:08:54;;;;;;;20.60;11.45;;;-2.80;77.30;;;;;;5015169;28;20481;-51
2020/12/08 10:11:22;;;;;;;19.52;9.38;;;-2.80;76.60;;;;;;5013903;28;20037;-50
2020/12/08 10:13:48;;;;;;;19.08;9.90;;;-2.80;76.70;;;;;;5015640;28;20041;-51
2020/12/08 10:16:22;;;;;;;23.10;9.95;;;-2.80;77.20;;;;;;5011882;28;20033;-52
2020/12/08 10:18:49;;;;;;;16.15;8.77;;;-2.80;77.20;;;;;;5017458;28;20063;-49
2020/12/08 10:21:21;;;;;;;17.38;9.50;;;-2.80;77.10;;;;;;5016272;28;20377;-52
2020/12/08 10:23:48;;;;;;;20.23;9.65;;;-2.80;76.90;;;;;;5012349;28;20045;-51
2020/12/08 10:26:14;;;;;;;17.83;8.90;;;-2.80;77.60;;;;;;5009580;28;20036;-53
2020/12/08 10:28:40;;;;;;;18.35;9.52;;;-2.80;77.70;;;;;;5013765;28;20100;-51
2020/12/08 10:31:05;;;;;;;17.23;9.13;;;-2.70;77.40;;;;;;5008282;28;20203;-54
2020/12/08 10:33:31;;;;;;;18.02;9.32;;;-2.70;76.90;;;;;;5010022;28;20042;-52
2020/12/08 10:35:57;;;;;;;19.30;10.40;;;-2.70;77.10;;;;;;5014520;28;20088;-50
2020/12/08 10:38:24;;;;;;;17.67;9.48;;;-2.70;77.20;;;;;;5014275;28;20034;-52
2020/12/08 10:40:50;;;;;;;17.73;9.05;;;-2.70;77.40;;;;;;5014749;28;20026;-53
2020/12/08 10:43:16;;;;;;;16.40;8.05;;;-2.60;77.30;;;;;;5015260;28;20041;-52
2020/12/08 10:45:41;;;;;;;16.23;9.07;;;-2.50;77.40;;;;;;5012313;28;20098;-54
2020/12/08 10:48:07;;;;;;;16.42;9.32;;;-2.50;77.10;;;;;;5009976;28;20049;-52
2020/12/08 10:50:33;;;;;;;16.02;8.98;;;-2.50;77.30;;;;;;5012600;28;20488;-50
2020/12/08 10:52:58;;;;;;;13.63;8.85;;;-2.40;77.60;;;;;;5006478;28;20474;-54
2020/12/08 10:55:24;;;;;;;16.75;8.68;;;-2.30;77.70;;;;;;5009336;28;20036;-51
2020/12/08 10:57:51;;;;;;;16.67;9.38;;;-2.30;77.30;;;;;;5008873;28;20057;-54
2020/12/08 11:00:17;;;;;;;17.27;9.07;;;-2.30;77.10;;;;;;5010521;28;20037;-54
2020/12/08 11:02:42;;;;;;;15.27;9.10;;;-2.20;76.90;;;;;;4999728;28;20359;-54
2020/12/08 11:05:08;;;;;;;18.05;9.25;;;-2.20;77.20;;;;;;5004623;28;20083;-53
2020/12/08 11:07:34;;;;;;;13.35;8.82;;;-2.20;77.30;;;;;;5006541;28;20116;-54
2020/12/08 11:10:00;;;;;;;14.18;7.63;;;-2.10;77.60;;;;;;5004594;28;20421;-53
2020/12/08 11:12:26;;;;;;;16.67;9.15;;;-2.00;77.60;;;;;;5009653;28;22015;-52
2020/12/08 11:14:53;;;;;;;14.30;7.70;;;-2.00;77.20;;;;;;5010327;28;20046;-52
2020/12/08 11:17:18;;;;;;;17.25;9.23;;;-1.90;76.90;;;;;;5010496;28;20045;-52
2020/12/08 11:19:44;;;;;;;13.48;8.15;;;-1.90;76.70;;;;;;5010247;28;20382;-52
2020/12/08 11:22:10;;;;;;;18.05;9.18;;;-1.90;77.00;;;;;;5012205;28;20042;-53
2020/12/08 11:24:37;;;;;;;19.65;9.55;;;-1.90;76.70;;;;;;5008404;28;20122;-55
2020/12/08 11:27:03;;;;;;;14.90;8.48;;;-1.90;76.70;;;;;;5010020;28;20367;-51
2020/12/08 11:29:28;;;;;;;17.42;8.85;;;-1.90;76.60;;;;;;5005504;28;20044;-55
2020/12/08 11:31:54;;;;;;;15.82;7.93;;;-1.90;76.30;;;;;;5011146;28;20040;-55
2020/12/08 11:34:20;;;;;;;17.52;9.23;;;-1.90;76.30;;;;;;5012582;28;20065;-54
2020/12/08 11:36:46;;;;;;;18.77;10.88;;;-1.90;76.70;;;;;;5013641;28;20041;-53
2020/12/08 11:39:11;;;;;;;17.98;9.43;;;-1.90;76.60;;;;;;5014932;28;21424;-55
2020/12/08 11:41:43;;;;;;;20.13;10.25;;;-2.00;75.70;;;;;;5008233;28;20044;-52
2020/12/08 11:44:11;;;;;;;13.80;8.35;;;-2.00;76.50;;;;;;5013819;28;20385;-51
2020/12/08 11:46:37;;;;;;;15.13;8.55;;;-2.10;77.00;;;;;;5012515;28;20030;-51
2020/12/08 11:49:04;;;;;;;15.82;8.27;;;-2.10;77.30;;;;;;5013803;28;20065;-52
2020/12/08 11:51:29;;;;;;;14.55;7.82;;;-2.10;77.30;;;;;;5013431;28;20022;-53
2020/12/08 11:53:58;;;;;;;17.08;8.85;;;-2.00;77.30;;;;;;5013990;28;20052;-55
2020/12/08 11:56:26;;;;;;;11.90;7.93;;;-2.00;77.50;;;;;;5015048;28;20047;-53
2020/12/08 11:58:53;;;;;;;16.98;8.52;;;-1.90;77.50;;;;;;5014918;28;20120;-53
2020/12/08 12:01:19;;;;;;;13.98;8.00;;;-1.90;77.50;;;;;;5012374;28;20052;-55
2020/12/08 12:03:45;;;;;;;14.48;7.53;;;-1.80;77.50;;;;;;5009503;28;20117;-55
2020/12/08 12:06:13;;;;;;;17.40;8.15;;;-1.80;77.40;;;;;;5007935;28;20044;-52
2020/12/08 12:08:39;;;;;;;13.50;7.93;;;-1.70;77.30;;;;;;5009065;28;20045;-53
2020/12/08 12:11:06;;;;;;;15.38;8.05;;;-1.70;77.00;;;;;;5011898;28;20029;-56
2020/12/08 12:13:32;;;;;;;16.10;8.82;;;-1.60;77.10;;;;;;5010813;28;20025;-55
2020/12/08 12:15:58;;;;;;;15.90;8.38;;;-1.60;77.00;;;;;;5010046;28;20045;-53
2020/12/08 12:18:23;;;;;;;13.20;8.00;;;-1.60;76.90;;;;;;5010343;28;20034;-54
2020/12/08 12:20:49;;;;;;;12.50;7.45;;;-1.60;76.70;;;;;;5009634;28;20079;-55
2020/12/08 12:23:15;;;;;;;13.48;8.23;;;-1.60;76.80;;;;;;5007955;28;20075;-52
2020/12/08 12:25:40;;;;;;;13.50;8.18;;;-1.60;77.00;;;;;;5008329;28;20678;-54
2020/12/08 12:28:06;;;;;;;18.83;8.45;;;-1.50;76.70;;;;;;5011374;28;20041;-55
2020/12/08 12:30:32;;;;;;;13.63;8.38;;;-1.50;76.70;;;;;;5009798;28;20033;-53
2020/12/08 12:32:57;;;;;;;12.32;8.00;;;-1.50;76.90;;;;;;5016282;28;20938;-54
2020/12/08 12:35:23;;;;;;;19.67;9.27;;;-1.50;77.00;;;;;;5009749;28;20026;-55